sensor_id;sensor_type;location;lat;lon;timestamp;temperature;humidity
22194;DHT22;11262;50.308;9.270;2022-09-09T00:02:27;15.80;99.90
22194;DHT22;11262;50.308;9.270;2022-09-09T00:05:21;15.80;99.90
22194;DHT22;11262;50.308;9.270;2022-09-09T00:07:51;15.80;99.90
22194;DHT22;11262;50.308;9.270;2022-09-09T00:13:02;15.80;99.90
22194;DHT22;11262;50.308;9.270;2022-09-09T00:15:45;15.90;99.90
22194;DHT22;11262;50.308;9.270;2022-09-09T00:20:58;15.90;99.90
22194;DHT22;11262;50.308;9.270;2022-09-09T00:23:30;15.90;99.90
22194;DHT22;11262;50.308;9.270;2022-09-09T00:26:04;16.00;99.90
22194;DHT22;11262;50.308;9.270;2022-09-09T00:28:38;16.00;99.90
22194;DHT22;11262;50.308;9.270;2022-09-09T00:31:18;15.90;99.90
22194;DHT22;11262;50.308;9.270;2022-09-09T00:33:46;15.90;99.90
22194;DHT22;11262;50.308;9.270;2022-09-09T00:36:16;16.00;99.90
22194;DHT22;11262;50.308;9.270;2022-09-09T00:38:49;16.00;99.90
22194;DHT22;11262;50.308;9.270;2022-09-09T00:41:39;16.00;99.90
22194;DHT22;11262;50.308;9.270;2022-09-09T00:47:01;16.10;99.90
22194;DHT22;11262;50.308;9.270;2022-09-09T00:52:39;16.20;99.90
22194;DHT22;11262;50.308;9.270;2022-09-09T00:57:36;15.90;99.90
22194;DHT22;11262;50.308;9.270;2022-09-09T01:09:09;15.80;99.90
22194;DHT22;11262;50.308;9.270;2022-09-09T01:14:37;15.70;99.90
22194;DHT22;11262;50.308;9.270;2022-09-09T01:17:27;15.70;99.90
22194;DHT22;11262;50.308;9.270;2022-09-09T01:20:14;15.80;99.90
22194;DHT22;11262;50.308;9.270;2022-09-09T01:28:52;15.90;99.90
22194;DHT22;11262;50.308;9.270;2022-09-09T01:31:38;16.00;99.90
22194;DHT22;11262;50.308;9.270;2022-09-09T01:34:13;16.10;99.90
22194;DHT22;11262;50.308;9.270;2022-09-09T01:36:43;16.10;99.90
22194;DHT22;11262;50.308;9.270;2022-09-09T01:39:09;16.20;99.90
22194;DHT22;11262;50.308;9.270;2022-09-09T01:41:36;16.20;99.90
22194;DHT22;11262;50.308;9.270;2022-09-09T01:44:02;16.20;99.90
22194;DHT22;11262;50.308;9.270;2022-09-09T01:46:29;16.20;99.90
22194;DHT22;11262;50.308;9.270;2022-09-09T01:48:55;16.20;99.90
22194;DHT22;11262;50.308;9.270;2022-09-09T01:51:21;16.20;99.90
22194;DHT22;11262;50.308;9.270;2022-09-09T01:53:48;16.20;99.90
22194;DHT22;11262;50.308;9.270;2022-09-09T02:04:49;16.10;99.90
22194;DHT22;11262;50.308;9.270;2022-09-09T02:10:16;16.00;99.90
22194;DHT22;11262;50.308;9.270;2022-09-09T02:12:55;15.90;99.90
22194;DHT22;11262;50.308;9.270;2022-09-09T02:15:28;15.80;99.90
22194;DHT22;11262;50.308;9.270;2022-09-09T02:17:57;15.80;99.90
22194;DHT22;11262;50.308;9.270;2022-09-09T02:20:24;15.70;99.90
22194;DHT22;11262;50.308;9.270;2022-09-09T02:22:53;15.80;99.90
22194;DHT22;11262;50.308;9.270;2022-09-09T02:25:22;15.80;99.90
22194;DHT22;11262;50.308;9.270;2022-09-09T02:27:50;15.80;99.90
22194;DHT22;11262;50.308;9.270;2022-09-09T02:30:19;15.70;99.90
22194;DHT22;11262;50.308;9.270;2022-09-09T02:32:46;15.70;99.90
22194;DHT22;11262;50.308;9.270;2022-09-09T02:35:17;15.70;99.90
22194;DHT22;11262;50.308;9.270;2022-09-09T02:37:45;15.70;99.90
22194;DHT22;11262;50.308;9.270;2022-09-09T02:40:14;15.70;99.90
22194;DHT22;11262;50.308;9.270;2022-09-09T02:42:44;15.60;99.90
22194;DHT22;11262;50.308;9.270;2022-09-09T02:45:12;15.60;99.90
22194;DHT22;11262;50.308;9.270;2022-09-09T02:50:21;15.60;99.90
22194;DHT22;11262;50.308;9.270;2022-09-09T02:57:58;15.60;99.90
22194;DHT22;11262;50.308;9.270;2022-09-09T03:00:26;15.60;99.90
22194;DHT22;11262;50.308;9.270;2022-09-09T03:02:53;15.60;99.90
22194;DHT22;11262;50.308;9.270;2022-09-09T03:05:20;15.60;99.90
22194;DHT22;11262;50.308;9.270;2022-09-09T03:07:46;15.50;99.90
22194;DHT22;11262;50.308;9.270;2022-09-09T03:10:12;15.50;99.90
22194;DHT22;11262;50.308;9.270;2022-09-09T03:12:38;15.40;99.90
22194;DHT22;11262;50.308;9.270;2022-09-09T03:15:05;15.40;99.90
22194;DHT22;11262;50.308;9.270;2022-09-09T03:17:31;15.40;99.90
22194;DHT22;11262;50.308;9.270;2022-09-09T03:19:57;15.50;99.90
22194;DHT22;11262;50.308;9.270;2022-09-09T03:22:24;15.50;99.90
22194;DHT22;11262;50.308;9.270;2022-09-09T03:24:51;15.40;99.90
22194;DHT22;11262;50.308;9.270;2022-09-09T03:27:17;15.40;99.90
22194;DHT22;11262;50.308;9.270;2022-09-09T03:29:45;15.40;99.90
22194;DHT22;11262;50.308;9.270;2022-09-09T03:32:11;15.40;99.90
22194;DHT22;11262;50.308;9.270;2022-09-09T03:34:37;15.40;99.90
22194;DHT22;11262;50.308;9.270;2022-09-09T03:37:06;15.50;99.90
22194;DHT22;11262;50.308;9.270;2022-09-09T03:39:32;15.50;99.90
22194;DHT22;11262;50.308;9.270;2022-09-09T03:41:57;15.50;99.90
22194;DHT22;11262;50.308;9.270;2022-09-09T03:44:23;15.60;99.90
22194;DHT22;11262;50.308;9.270;2022-09-09T03:46:49;15.60;99.90
22194;DHT22;11262;50.308;9.270;2022-09-09T03:49:14;15.60;99.90
22194;DHT22;11262;50.308;9.270;2022-09-09T03:51:40;15.60;99.90
22194;DHT22;11262;50.308;9.270;2022-09-09T03:54:07;15.60;99.90
22194;DHT22;11262;50.308;9.270;2022-09-09T03:56:34;15.60;99.90
22194;DHT22;11262;50.308;9.270;2022-09-09T03:59:00;15.60;99.90
22194;DHT22;11262;50.308;9.270;2022-09-09T04:01:26;15.60;99.90
22194;DHT22;11262;50.308;9.270;2022-09-09T04:03:52;15.60;99.90
22194;DHT22;11262;50.308;9.270;2022-09-09T04:06:18;15.60;99.90
22194;DHT22;11262;50.308;9.270;2022-09-09T04:08:45;15.60;99.90
22194;DHT22;11262;50.308;9.270;2022-09-09T04:11:14;15.70;99.90
22194;DHT22;11262;50.308;9.270;2022-09-09T04:13:40;15.70;99.90
22194;DHT22;11262;50.308;9.270;2022-09-09T04:16:08;15.70;99.90
22194;DHT22;11262;50.308;9.270;2022-09-09T04:18:34;15.70;99.90
22194;DHT22;11262;50.308;9.270;2022-09-09T04:21:00;15.70;99.90
22194;DHT22;11262;50.308;9.270;2022-09-09T04:23:28;15.70;99.90
22194;DHT22;11262;50.308;9.270;2022-09-09T04:25:57;15.60;99.90
22194;DHT22;11262;50.308;9.270;2022-09-09T04:28:26;15.60;99.90
22194;DHT22;11262;50.308;9.270;2022-09-09T04:30:51;15.60;99.90
22194;DHT22;11262;50.308;9.270;2022-09-09T04:33:18;15.50;99.90
22194;DHT22;11262;50.308;9.270;2022-09-09T04:35:45;15.50;99.90
22194;DHT22;11262;50.308;9.270;2022-09-09T04:38:10;15.50;99.90
22194;DHT22;11262;50.308;9.270;2022-09-09T04:40:36;15.50;99.90
22194;DHT22;11262;50.308;9.270;2022-09-09T04:43:03;15.50;99.90
22194;DHT22;11262;50.308;9.270;2022-09-09T04:45:31;15.50;99.90
22194;DHT22;11262;50.308;9.270;2022-09-09T04:47:57;15.50;99.90
22194;DHT22;11262;50.308;9.270;2022-09-09T04:50:23;15.50;99.90
22194;DHT22;11262;50.308;9.270;2022-09-09T04:52:50;15.50;99.90
22194;DHT22;11262;50.308;9.270;2022-09-09T04:55:16;15.40;99.90
22194;DHT22;11262;50.308;9.270;2022-09-09T04:57:41;15.40;99.90
22194;DHT22;11262;50.308;9.270;2022-09-09T05:00:07;15.40;99.90
22194;DHT22;11262;50.308;9.270;2022-09-09T05:02:37;15.40;99.90
22194;DHT22;11262;50.308;9.270;2022-09-09T05:05:03;15.40;99.90
22194;DHT22;11262;50.308;9.270;2022-09-09T05:07:29;15.40;99.90
22194;DHT22;11262;50.308;9.270;2022-09-09T05:09:56;15.40;99.90
22194;DHT22;11262;50.308;9.270;2022-09-09T05:12:23;15.40;99.90
22194;DHT22;11262;50.308;9.270;2022-09-09T05:14:49;15.40;99.90
22194;DHT22;11262;50.308;9.270;2022-09-09T05:17:15;15.40;99.90
22194;DHT22;11262;50.308;9.270;2022-09-09T05:19:41;15.50;99.90
22194;DHT22;11262;50.308;9.270;2022-09-09T05:22:07;15.50;99.90
22194;DHT22;11262;50.308;9.270;2022-09-09T05:24:33;15.50;99.90
22194;DHT22;11262;50.308;9.270;2022-09-09T05:26:59;15.50;99.90
22194;DHT22;11262;50.308;9.270;2022-09-09T05:29:27;15.60;99.90
22194;DHT22;11262;50.308;9.270;2022-09-09T05:31:53;15.60;99.90
22194;DHT22;11262;50.308;9.270;2022-09-09T05:34:18;15.60;99.90
22194;DHT22;11262;50.308;9.270;2022-09-09T05:36:44;15.60;99.90
22194;DHT22;11262;50.308;9.270;2022-09-09T05:39:10;15.60;99.90
22194;DHT22;11262;50.308;9.270;2022-09-09T05:41:37;15.70;99.90
22194;DHT22;11262;50.308;9.270;2022-09-09T05:44:02;15.70;99.90
22194;DHT22;11262;50.308;9.270;2022-09-09T05:46:29;15.80;99.90
22194;DHT22;11262;50.308;9.270;2022-09-09T05:48:55;15.80;99.90
22194;DHT22;11262;50.308;9.270;2022-09-09T05:51:23;15.90;99.90
22194;DHT22;11262;50.308;9.270;2022-09-09T05:53:49;15.90;99.90
22194;DHT22;11262;50.308;9.270;2022-09-09T05:56:27;15.90;99.90
22194;DHT22;11262;50.308;9.270;2022-09-09T05:58:54;15.90;99.90
22194;DHT22;11262;50.308;9.270;2022-09-09T06:01:34;15.90;99.90
22194;DHT22;11262;50.308;9.270;2022-09-09T06:04:00;15.80;99.90
22194;DHT22;11262;50.308;9.270;2022-09-09T06:06:30;15.90;99.90
22194;DHT22;11262;50.308;9.270;2022-09-09T06:08:57;15.90;99.90
22194;DHT22;11262;50.308;9.270;2022-09-09T06:11:26;15.90;99.90
22194;DHT22;11262;50.308;9.270;2022-09-09T06:13:52;16.00;99.90
22194;DHT22;11262;50.308;9.270;2022-09-09T06:16:22;16.00;99.90
22194;DHT22;11262;50.308;9.270;2022-09-09T06:18:49;16.00;99.90
22194;DHT22;11262;50.308;9.270;2022-09-09T06:21:18;16.10;99.90
22194;DHT22;11262;50.308;9.270;2022-09-09T06:23:44;16.10;99.90
22194;DHT22;11262;50.308;9.270;2022-09-09T06:26:16;16.10;99.90
22194;DHT22;11262;50.308;9.270;2022-09-09T06:28:46;16.10;99.90
22194;DHT22;11262;50.308;9.270;2022-09-09T06:31:14;16.10;99.90
22194;DHT22;11262;50.308;9.270;2022-09-09T06:33:42;16.10;99.90
22194;DHT22;11262;50.308;9.270;2022-09-09T06:38:38;16.10;99.90
22194;DHT22;11262;50.308;9.270;2022-09-09T06:41:04;16.00;99.90
22194;DHT22;11262;50.308;9.270;2022-09-09T06:43:31;16.00;99.90
22194;DHT22;11262;50.308;9.270;2022-09-09T06:48:25;16.00;99.90
22194;DHT22;11262;50.308;9.270;2022-09-09T06:51:14;16.00;99.90
22194;DHT22;11262;50.308;9.270;2022-09-09T06:53:41;16.00;99.90
22194;DHT22;11262;50.308;9.270;2022-09-09T06:58:45;16.00;99.90
22194;DHT22;11262;50.308;9.270;2022-09-09T07:01:13;15.90;99.90
22194;DHT22;11262;50.308;9.270;2022-09-09T07:03:39;16.00;99.90
22194;DHT22;11262;50.308;9.270;2022-09-09T07:06:06;16.00;99.90
22194;DHT22;11262;50.308;9.270;2022-09-09T07:08:33;16.00;99.90
22194;DHT22;11262;50.308;9.270;2022-09-09T07:11:06;16.10;99.90
22194;DHT22;11262;50.308;9.270;2022-09-09T07:13:32;16.10;99.90
22194;DHT22;11262;50.308;9.270;2022-09-09T07:16:09;16.20;99.90
22194;DHT22;11262;50.308;9.270;2022-09-09T07:18:35;16.10;99.90
22194;DHT22;11262;50.308;9.270;2022-09-09T07:21:02;16.20;99.90
22194;DHT22;11262;50.308;9.270;2022-09-09T07:23:29;16.30;99.90
22194;DHT22;11262;50.308;9.270;2022-09-09T07:25:56;16.30;99.90
22194;DHT22;11262;50.308;9.270;2022-09-09T07:28:22;16.40;99.90
22194;DHT22;11262;50.308;9.270;2022-09-09T07:30:59;16.40;99.90
22194;DHT22;11262;50.308;9.270;2022-09-09T07:33:26;16.40;99.90
22194;DHT22;11262;50.308;9.270;2022-09-09T07:35:52;16.40;99.90
22194;DHT22;11262;50.308;9.270;2022-09-09T07:38:19;16.30;99.90
22194;DHT22;11262;50.308;9.270;2022-09-09T07:40:45;16.40;99.90
22194;DHT22;11262;50.308;9.270;2022-09-09T07:43:11;16.40;99.90
22194;DHT22;11262;50.308;9.270;2022-09-09T07:45:37;16.50;99.90
22194;DHT22;11262;50.308;9.270;2022-09-09T07:48:03;16.60;99.90
22194;DHT22;11262;50.308;9.270;2022-09-09T07:50:29;16.60;99.90
22194;DHT22;11262;50.308;9.270;2022-09-09T07:52:55;16.70;99.90
22194;DHT22;11262;50.308;9.270;2022-09-09T07:55:22;16.80;99.90
22194;DHT22;11262;50.308;9.270;2022-09-09T07:57:51;16.90;99.90
22194;DHT22;11262;50.308;9.270;2022-09-09T08:00:17;16.90;99.90
22194;DHT22;11262;50.308;9.270;2022-09-09T08:02:44;17.00;99.90
22194;DHT22;11262;50.308;9.270;2022-09-09T08:05:10;17.10;99.90
22194;DHT22;11262;50.308;9.270;2022-09-09T08:07:36;17.10;99.90
22194;DHT22;11262;50.308;9.270;2022-09-09T08:10:03;17.20;99.90
22194;DHT22;11262;50.308;9.270;2022-09-09T08:12:29;17.10;99.90
22194;DHT22;11262;50.308;9.270;2022-09-09T08:14:54;17.10;99.90
22194;DHT22;11262;50.308;9.270;2022-09-09T08:17:20;17.10;99.90
22194;DHT22;11262;50.308;9.270;2022-09-09T08:19:46;17.00;99.90
22194;DHT22;11262;50.308;9.270;2022-09-09T08:22:11;17.00;99.90
22194;DHT22;11262;50.308;9.270;2022-09-09T08:24:37;17.10;99.90
22194;DHT22;11262;50.308;9.270;2022-09-09T08:27:03;17.00;99.90
22194;DHT22;11262;50.308;9.270;2022-09-09T08:29:28;17.00;99.90
22194;DHT22;11262;50.308;9.270;2022-09-09T08:31:56;17.00;99.90
22194;DHT22;11262;50.308;9.270;2022-09-09T08:34:23;17.00;99.90
22194;DHT22;11262;50.308;9.270;2022-09-09T08:36:50;17.00;99.90
22194;DHT22;11262;50.308;9.270;2022-09-09T08:39:18;17.00;99.90
22194;DHT22;11262;50.308;9.270;2022-09-09T08:44:36;17.10;99.90
22194;DHT22;11262;50.308;9.270;2022-09-09T08:47:19;17.00;99.90
22194;DHT22;11262;50.308;9.270;2022-09-09T08:53:43;17.30;99.90
22194;DHT22;11262;50.308;9.270;2022-09-09T08:55:58;17.80;99.90
22194;DHT22;11262;50.308;9.270;2022-09-09T08:58:35;17.90;99.90
22194;DHT22;11262;50.308;9.270;2022-09-09T09:09:26;17.80;99.90
22194;DHT22;11262;50.308;9.270;2022-09-09T09:11:58;17.60;99.90
22194;DHT22;11262;50.308;9.270;2022-09-09T09:14:29;17.90;99.90
22194;DHT22;11262;50.308;9.270;2022-09-09T09:17:01;18.20;99.90
22194;DHT22;11262;50.308;9.270;2022-09-09T09:19:28;18.50;99.90
22194;DHT22;11262;50.308;9.270;2022-09-09T09:30:01;18.10;99.90
22194;DHT22;11262;50.308;9.270;2022-09-09T09:32:31;18.30;99.90
22194;DHT22;11262;50.308;9.270;2022-09-09T09:34:59;18.40;99.90
22194;DHT22;11262;50.308;9.270;2022-09-09T09:37:32;18.50;99.90
22194;DHT22;11262;50.308;9.270;2022-09-09T09:40:20;18.70;99.90
22194;DHT22;11262;50.308;9.270;2022-09-09T09:43:00;18.70;99.90
22194;DHT22;11262;50.308;9.270;2022-09-09T09:45:33;19.00;99.90
22194;DHT22;11262;50.308;9.270;2022-09-09T09:48:08;19.50;99.90
22194;DHT22;11262;50.308;9.270;2022-09-09T09:50:34;19.20;99.90
22194;DHT22;11262;50.308;9.270;2022-09-09T09:53:03;19.30;99.90
22194;DHT22;11262;50.308;9.270;2022-09-09T09:55:31;19.30;99.90
22194;DHT22;11262;50.308;9.270;2022-09-09T09:58:04;19.40;99.90
22194;DHT22;11262;50.308;9.270;2022-09-09T10:00:30;19.40;99.90
22194;DHT22;11262;50.308;9.270;2022-09-09T10:02:55;19.20;99.90
22194;DHT22;11262;50.308;9.270;2022-09-09T10:05:26;19.20;99.90
22194;DHT22;11262;50.308;9.270;2022-09-09T10:10:57;18.80;99.90
22194;DHT22;11262;50.308;9.270;2022-09-09T10:18:32;18.50;99.90
22194;DHT22;11262;50.308;9.270;2022-09-09T10:32:48;19.00;99.90
22194;DHT22;11262;50.308;9.270;2022-09-09T10:35:30;18.90;99.90
22194;DHT22;11262;50.308;9.270;2022-09-09T10:43:40;18.90;99.90
22194;DHT22;11262;50.308;9.270;2022-09-09T10:46:50;18.90;99.90
22194;DHT22;11262;50.308;9.270;2022-09-09T10:57:40;20.00;99.90
22194;DHT22;11262;50.308;9.270;2022-09-09T11:00:17;20.00;99.90
22194;DHT22;11262;50.308;9.270;2022-09-09T11:02:43;20.30;99.90
22194;DHT22;11262;50.308;9.270;2022-09-09T11:05:21;20.60;99.90
22194;DHT22;11262;50.308;9.270;2022-09-09T11:07:56;20.80;99.90
22194;DHT22;11262;50.308;9.270;2022-09-09T11:13:29;20.50;99.90
22194;DHT22;11262;50.308;9.270;2022-09-09T11:16:09;20.50;99.90
22194;DHT22;11262;50.308;9.270;2022-09-09T11:18:40;20.40;99.90
22194;DHT22;11262;50.308;9.270;2022-09-09T11:21:16;20.30;99.90
22194;DHT22;11262;50.308;9.270;2022-09-09T11:23:49;20.20;99.90
22194;DHT22;11262;50.308;9.270;2022-09-09T11:26:21;20.20;99.90
22194;DHT22;11262;50.308;9.270;2022-09-09T11:29:16;20.20;99.90
22194;DHT22;11262;50.308;9.270;2022-09-09T11:34:55;20.20;99.90
22194;DHT22;11262;50.308;9.270;2022-09-09T11:40:24;20.30;99.90
22194;DHT22;11262;50.308;9.270;2022-09-09T11:43:05;20.50;99.90
22194;DHT22;11262;50.308;9.270;2022-09-09T11:45:35;20.80;99.90
22194;DHT22;11262;50.308;9.270;2022-09-09T11:48:02;20.70;99.90
22194;DHT22;11262;50.308;9.270;2022-09-09T11:50:32;20.70;99.90
22194;DHT22;11262;50.308;9.270;2022-09-09T11:55:39;20.10;99.90
22194;DHT22;11262;50.308;9.270;2022-09-09T12:00:41;19.60;99.90
22194;DHT22;11262;50.308;9.270;2022-09-09T12:06:32;19.00;99.90
22194;DHT22;11262;50.308;9.270;2022-09-09T12:09:20;19.00;99.90
22194;DHT22;11262;50.308;9.270;2022-09-09T12:11:48;19.30;99.90
22194;DHT22;11262;50.308;9.270;2022-09-09T12:14:23;19.30;99.90
22194;DHT22;11262;50.308;9.270;2022-09-09T12:17:09;19.30;99.90
22194;DHT22;11262;50.308;9.270;2022-09-09T12:19:35;19.50;99.90
22194;DHT22;11262;50.308;9.270;2022-09-09T12:22:18;19.70;99.90
22194;DHT22;11262;50.308;9.270;2022-09-09T12:27:40;19.40;99.90
22194;DHT22;11262;50.308;9.270;2022-09-09T12:30:14;19.50;99.90
22194;DHT22;11262;50.308;9.270;2022-09-09T12:32:40;19.60;99.90
22194;DHT22;11262;50.308;9.270;2022-09-09T12:35:22;20.00;99.90
22194;DHT22;11262;50.308;9.270;2022-09-09T12:37:59;20.60;99.90
22194;DHT22;11262;50.308;9.270;2022-09-09T12:40:33;20.90;99.90
22194;DHT22;11262;50.308;9.270;2022-09-09T12:43:01;21.20;99.90
22194;DHT22;11262;50.308;9.270;2022-09-09T12:45:30;21.40;99.90
22194;DHT22;11262;50.308;9.270;2022-09-09T12:48:05;21.50;99.90
22194;DHT22;11262;50.308;9.270;2022-09-09T12:50:36;21.80;99.90
22194;DHT22;11262;50.308;9.270;2022-09-09T12:53:07;22.50;99.90
22194;DHT22;11262;50.308;9.270;2022-09-09T12:55:38;22.40;99.90
22194;DHT22;11262;50.308;9.270;2022-09-09T12:58:05;21.90;99.90
22194;DHT22;11262;50.308;9.270;2022-09-09T13:00:33;21.60;99.90
22194;DHT22;11262;50.308;9.270;2022-09-09T13:03:02;21.40;99.90
22194;DHT22;11262;50.308;9.270;2022-09-09T13:05:34;21.10;99.90
22194;DHT22;11262;50.308;9.270;2022-09-09T13:08:11;20.90;99.90
22194;DHT22;11262;50.308;9.270;2022-09-09T13:10:45;20.80;99.90
22194;DHT22;11262;50.308;9.270;2022-09-09T13:13:23;20.90;99.90
22194;DHT22;11262;50.308;9.270;2022-09-09T13:15:53;21.00;99.90
22194;DHT22;11262;50.308;9.270;2022-09-09T13:18:23;20.90;99.90
22194;DHT22;11262;50.308;9.270;2022-09-09T13:20:49;20.60;99.90
22194;DHT22;11262;50.308;9.270;2022-09-09T13:23:18;20.30;99.90
22194;DHT22;11262;50.308;9.270;2022-09-09T13:25:59;20.00;99.90
22194;DHT22;11262;50.308;9.270;2022-09-09T13:28:27;19.80;99.90
22194;DHT22;11262;50.308;9.270;2022-09-09T13:31:36;19.70;99.90
22194;DHT22;11262;50.308;9.270;2022-09-09T13:34:33;19.60;99.90
22194;DHT22;11262;50.308;9.270;2022-09-09T13:37:06;19.50;99.90
22194;DHT22;11262;50.308;9.270;2022-09-09T13:39:36;19.30;99.90
22194;DHT22;11262;50.308;9.270;2022-09-09T13:42:03;19.20;99.90
22194;DHT22;11262;50.308;9.270;2022-09-09T13:44:31;19.00;99.90
22194;DHT22;11262;50.308;9.270;2022-09-09T13:47:19;18.70;99.90
22194;DHT22;11262;50.308;9.270;2022-09-09T13:49:46;18.70;99.90
22194;DHT22;11262;50.308;9.270;2022-09-09T13:52:14;18.50;99.90
22194;DHT22;11262;50.308;9.270;2022-09-09T13:54:41;18.20;99.90
22194;DHT22;11262;50.308;9.270;2022-09-09T13:57:24;18.10;99.90
22194;DHT22;11262;50.308;9.270;2022-09-09T13:59:51;18.00;99.90
22194;DHT22;11262;50.308;9.270;2022-09-09T14:02:17;17.70;99.90
22194;DHT22;11262;50.308;9.270;2022-09-09T14:04:43;17.40;99.90
22194;DHT22;11262;50.308;9.270;2022-09-09T14:07:12;17.30;99.90
22194;DHT22;11262;50.308;9.270;2022-09-09T14:09:38;17.00;99.90
22194;DHT22;11262;50.308;9.270;2022-09-09T14:12:04;17.10;99.90
22194;DHT22;11262;50.308;9.270;2022-09-09T14:14:30;17.10;99.90
22194;DHT22;11262;50.308;9.270;2022-09-09T14:16:56;17.10;99.90
22194;DHT22;11262;50.308;9.270;2022-09-09T14:19:21;17.20;99.90
22194;DHT22;11262;50.308;9.270;2022-09-09T14:21:48;17.30;99.90
22194;DHT22;11262;50.308;9.270;2022-09-09T14:24:14;17.50;99.90
22194;DHT22;11262;50.308;9.270;2022-09-09T14:26:39;17.60;99.90
22194;DHT22;11262;50.308;9.270;2022-09-09T14:29:06;17.70;99.90
22194;DHT22;11262;50.308;9.270;2022-09-09T14:31:31;18.50;99.90
22194;DHT22;11262;50.308;9.270;2022-09-09T14:33:58;19.00;99.90
22194;DHT22;11262;50.308;9.270;2022-09-09T14:36:24;18.90;99.90
22194;DHT22;11262;50.308;9.270;2022-09-09T14:38:50;19.00;99.90
22194;DHT22;11262;50.308;9.270;2022-09-09T14:41:17;19.20;99.90
22194;DHT22;11262;50.308;9.270;2022-09-09T14:43:44;19.70;99.90
22194;DHT22;11262;50.308;9.270;2022-09-09T14:46:12;20.00;99.90
22194;DHT22;11262;50.308;9.270;2022-09-09T14:48:38;20.00;99.90
22194;DHT22;11262;50.308;9.270;2022-09-09T14:51:14;19.80;99.90
22194;DHT22;11262;50.308;9.270;2022-09-09T14:53:41;19.30;99.90
22194;DHT22;11262;50.308;9.270;2022-09-09T14:56:11;18.90;99.90
22194;DHT22;11262;50.308;9.270;2022-09-09T14:58:37;18.70;99.90
22194;DHT22;11262;50.308;9.270;2022-09-09T15:01:12;18.90;99.90
22194;DHT22;11262;50.308;9.270;2022-09-09T15:03:38;19.00;99.90
22194;DHT22;11262;50.308;9.270;2022-09-09T15:06:10;19.40;99.90
22194;DHT22;11262;50.308;9.270;2022-09-09T15:08:37;19.30;99.90
22194;DHT22;11262;50.308;9.270;2022-09-09T15:11:05;19.20;99.90
22194;DHT22;11262;50.308;9.270;2022-09-09T15:13:33;19.50;99.90
22194;DHT22;11262;50.308;9.270;2022-09-09T15:16:06;19.80;99.90
22194;DHT22;11262;50.308;9.270;2022-09-09T15:18:33;19.70;99.90
22194;DHT22;11262;50.308;9.270;2022-09-09T15:21:02;19.30;99.90
22194;DHT22;11262;50.308;9.270;2022-09-09T15:23:32;19.00;99.90
22194;DHT22;11262;50.308;9.270;2022-09-09T15:25:57;18.80;99.90
22194;DHT22;11262;50.308;9.270;2022-09-09T15:28:23;18.60;99.90
22194;DHT22;11262;50.308;9.270;2022-09-09T15:30:50;18.50;99.90
22194;DHT22;11262;50.308;9.270;2022-09-09T15:33:17;18.60;99.90
22194;DHT22;11262;50.308;9.270;2022-09-09T15:35:43;18.50;99.90
22194;DHT22;11262;50.308;9.270;2022-09-09T15:38:09;18.40;99.90
22194;DHT22;11262;50.308;9.270;2022-09-09T15:40:34;18.40;99.90
22194;DHT22;11262;50.308;9.270;2022-09-09T15:43:00;18.30;99.90
22194;DHT22;11262;50.308;9.270;2022-09-09T15:45:26;18.20;99.90
22194;DHT22;11262;50.308;9.270;2022-09-09T15:47:52;18.10;99.90
22194;DHT22;11262;50.308;9.270;2022-09-09T15:50:18;18.10;99.90
22194;DHT22;11262;50.308;9.270;2022-09-09T15:52:43;18.20;99.90
22194;DHT22;11262;50.308;9.270;2022-09-09T15:55:09;18.50;99.90
22194;DHT22;11262;50.308;9.270;2022-09-09T15:57:35;18.90;99.90
22194;DHT22;11262;50.308;9.270;2022-09-09T16:00:03;19.40;99.90
22194;DHT22;11262;50.308;9.270;2022-09-09T16:02:29;19.70;99.90
22194;DHT22;11262;50.308;9.270;2022-09-09T16:04:56;19.50;99.90
22194;DHT22;11262;50.308;9.270;2022-09-09T16:07:22;19.10;99.90
22194;DHT22;11262;50.308;9.270;2022-09-09T16:09:48;18.90;99.90
22194;DHT22;11262;50.308;9.270;2022-09-09T16:12:16;18.90;99.90
22194;DHT22;11262;50.308;9.270;2022-09-09T16:14:41;18.80;99.90
22194;DHT22;11262;50.308;9.270;2022-09-09T16:17:07;18.70;99.90
22194;DHT22;11262;50.308;9.270;2022-09-09T16:19:33;18.60;99.90
22194;DHT22;11262;50.308;9.270;2022-09-09T16:22:00;18.50;99.90
22194;DHT22;11262;50.308;9.270;2022-09-09T16:24:25;18.60;99.90
22194;DHT22;11262;50.308;9.270;2022-09-09T16:26:53;18.50;99.90
22194;DHT22;11262;50.308;9.270;2022-09-09T16:29:20;18.50;99.90
22194;DHT22;11262;50.308;9.270;2022-09-09T16:31:48;18.50;99.90
22194;DHT22;11262;50.308;9.270;2022-09-09T16:34:15;18.50;99.90
22194;DHT22;11262;50.308;9.270;2022-09-09T16:36:42;18.40;99.90
22194;DHT22;11262;50.308;9.270;2022-09-09T16:39:14;18.30;99.90
22194;DHT22;11262;50.308;9.270;2022-09-09T16:41:41;18.30;99.90
22194;DHT22;11262;50.308;9.270;2022-09-09T16:44:09;18.10;99.90
22194;DHT22;11262;50.308;9.270;2022-09-09T16:46:37;18.00;99.90
22194;DHT22;11262;50.308;9.270;2022-09-09T16:49:06;17.90;99.90
22194;DHT22;11262;50.308;9.270;2022-09-09T16:51:39;17.80;99.90
22194;DHT22;11262;50.308;9.270;2022-09-09T16:54:07;17.80;99.90
22194;DHT22;11262;50.308;9.270;2022-09-09T16:56:35;17.70;99.90
22194;DHT22;11262;50.308;9.270;2022-09-09T16:59:05;17.70;99.90
22194;DHT22;11262;50.308;9.270;2022-09-09T17:01:33;17.70;99.90
22194;DHT22;11262;50.308;9.270;2022-09-09T17:04:04;17.60;99.90
22194;DHT22;11262;50.308;9.270;2022-09-09T17:06:31;17.50;99.90
22194;DHT22;11262;50.308;9.270;2022-09-09T17:09:01;17.50;99.90
22194;DHT22;11262;50.308;9.270;2022-09-09T17:11:27;17.40;99.90
22194;DHT22;11262;50.308;9.270;2022-09-09T17:13:55;17.40;99.90
22194;DHT22;11262;50.308;9.270;2022-09-09T17:16:22;17.40;99.90
22194;DHT22;11262;50.308;9.270;2022-09-09T17:18:51;17.40;99.90
22194;DHT22;11262;50.308;9.270;2022-09-09T17:21:19;17.30;99.90
22194;DHT22;11262;50.308;9.270;2022-09-09T17:23:46;17.30;99.90
22194;DHT22;11262;50.308;9.270;2022-09-09T17:26:14;17.20;99.90
22194;DHT22;11262;50.308;9.270;2022-09-09T17:28:41;17.20;99.90
22194;DHT22;11262;50.308;9.270;2022-09-09T17:31:09;17.10;99.90
22194;DHT22;11262;50.308;9.270;2022-09-09T17:33:37;17.10;99.90
22194;DHT22;11262;50.308;9.270;2022-09-09T17:38:33;17.10;99.90
22194;DHT22;11262;50.308;9.270;2022-09-09T17:41:04;17.00;99.90
22194;DHT22;11262;50.308;9.270;2022-09-09T17:43:31;17.00;99.90
22194;DHT22;11262;50.308;9.270;2022-09-09T17:46:06;17.00;99.90
22194;DHT22;11262;50.308;9.270;2022-09-09T17:48:31;16.90;99.90
22194;DHT22;11262;50.308;9.270;2022-09-09T17:50:58;16.90;99.90
22194;DHT22;11262;50.308;9.270;2022-09-09T17:53:24;16.80;99.90
22194;DHT22;11262;50.308;9.270;2022-09-09T17:55:50;16.80;99.90
22194;DHT22;11262;50.308;9.270;2022-09-09T17:58:16;16.80;99.90
22194;DHT22;11262;50.308;9.270;2022-09-09T18:00:42;16.80;99.90
22194;DHT22;11262;50.308;9.270;2022-09-09T18:03:07;16.70;99.90